createdAt,value
2023-04-04T00:04:32.756Z,6.80
2023-04-04T00:09:25.607Z,4.40
2023-04-04T00:14:18.627Z,5.90
2023-04-04T00:19:14.445Z,4.60
2023-04-04T00:24:07.535Z,6.60
2023-04-04T00:29:00.695Z,7.30
2023-04-04T00:33:53.466Z,4.90
2023-04-04T00:38:46.262Z,4.10
2023-04-04T00:43:39.926Z,6.50
2023-04-04T00:48:33.313Z,6.90
2023-04-04T00:53:26.107Z,6.30
2023-04-04T00:58:19.332Z,5.80
2023-04-04T01:03:12.956Z,6.40
2023-04-04T01:08:07.432Z,4.40
2023-04-04T01:13:00.569Z,5.10
2023-04-04T01:17:58.404Z,4.50
2023-04-04T01:22:53.016Z,5.10
2023-04-04T01:27:46.503Z,5.90
2023-04-04T01:32:52.770Z,5.50
2023-04-04T01:37:57.131Z,6.60
2023-04-04T01:42:51.613Z,6.80
2023-04-04T01:47:45.486Z,6.20
2023-04-04T01:52:42.981Z,3.80
2023-04-04T01:57:36.473Z,4.10
2023-04-04T02:02:29.970Z,7.80
2023-04-04T02:07:23.366Z,5.50
2023-04-04T02:12:16.982Z,5.30
2023-04-04T02:17:09.803Z,3.80
2023-04-04T02:22:03.198Z,6.70
2023-04-04T02:26:56.486Z,6.60
2023-04-04T02:31:49.277Z,10.00
2023-04-04T02:36:42.212Z,10.00
2023-04-04T02:41:35.708Z,10.00
2023-04-04T02:46:28.875Z,10.60
2023-04-04T02:51:25.805Z,12.40
2023-04-04T02:56:18.864Z,12.00
2023-04-04T03:01:12.359Z,13.00
2023-04-04T03:06:05.453Z,11.00
2023-04-04T03:10:58.304Z,8.80
2023-04-04T03:15:51.362Z,8.30
2023-04-04T03:20:44.291Z,11.90
2023-04-04T03:25:37.119Z,8.90
2023-04-04T03:30:32.320Z,3.80
2023-04-04T03:35:25.420Z,3.40
2023-04-04T03:40:18.473Z,9.70
2023-04-04T03:45:11.927Z,5.90
2023-04-04T03:50:05.266Z,5.80
2023-04-04T03:54:58.765Z,3.50
2023-04-04T03:59:51.704Z,4.30
2023-04-04T04:04:47.055Z,6.10
2023-04-04T04:09:40.168Z,4.00
2023-04-04T04:14:32.978Z,3.90
2023-04-04T04:19:27.132Z,5.50
2023-04-04T04:24:20.037Z,2.90
2023-04-04T04:29:13.041Z,6.10
2023-04-04T04:34:09.694Z,6.70
2023-04-04T04:39:03.736Z,6.10
2023-04-04T04:43:58.859Z,4.60
2023-04-04T04:48:52.711Z,8.50
2023-04-04T04:53:50.333Z,5.40
2023-04-04T04:58:45.145Z,4.30
2023-04-04T05:03:40.860Z,4.70
2023-04-04T05:08:35.855Z,5.40
2023-04-04T05:13:45.077Z,6.60
2023-04-04T05:18:38.264Z,8.50
2023-04-04T05:23:34.751Z,4.30
2023-04-04T05:28:28.023Z,4.50
2023-04-04T05:33:23.771Z,6.30
2023-04-04T05:38:24.769Z,7.10
2023-04-04T05:43:19.354Z,9.70
2023-04-04T05:48:22.820Z,10.60
2023-04-04T05:53:17.912Z,5.70
2023-04-04T05:58:13.742Z,4.00
2023-04-04T06:03:13.885Z,7.40
2023-04-04T06:08:08.024Z,6.80
2023-04-04T06:13:00.870Z,9.10
2023-04-04T06:17:55.632Z,4.50
2023-04-04T06:22:49.663Z,6.80
2023-04-04T06:27:42.855Z,9.30
2023-04-04T06:32:35.808Z,6.40
2023-04-04T06:37:29.981Z,6.80
2023-04-04T06:42:32.790Z,7.80
2023-04-04T06:47:29.632Z,9.50
2023-04-04T06:52:23.484Z,6.10
2023-04-04T06:57:16.753Z,13.50
2023-04-04T07:02:09.579Z,5.90
2023-04-04T07:07:02.777Z,8.20
2023-04-04T07:11:55.620Z,7.80
2023-04-04T07:16:48.417Z,6.70
2023-04-04T07:21:41.386Z,7.00
2023-04-04T07:26:35.183Z,5.80
2023-04-04T07:31:28.483Z,6.90
2023-04-04T07:36:21.423Z,4.50
2023-04-04T07:41:14.474Z,5.70
2023-04-04T07:46:07.336Z,3.70
2023-04-04T07:51:01.112Z,4.10
2023-04-04T07:55:54.217Z,7.80
2023-04-04T08:00:47.088Z,4.90
2023-04-04T08:05:40.035Z,3.70
2023-04-04T08:10:32.991Z,5.30
2023-04-04T08:15:26.471Z,5.70
2023-04-04T08:20:19.461Z,5.70
2023-04-04T08:25:12.894Z,4.20
2023-04-04T08:30:07.127Z,4.30
2023-04-04T08:35:00.486Z,5.50
2023-04-04T08:39:53.359Z,4.10
2023-04-04T08:44:48.852Z,3.20
2023-04-04T08:49:46.845Z,5.80
2023-04-04T08:54:41.937Z,3.10
2023-04-04T08:59:37.523Z,4.30
2023-04-04T09:04:31.469Z,3.10
2023-04-04T09:09:25.310Z,2.60
2023-04-04T09:14:20.694Z,2.90
2023-04-04T09:19:13.580Z,3.80
2023-04-04T09:24:06.600Z,4.90
2023-04-04T09:28:59.374Z,2.70
2023-04-04T09:33:52.353Z,3.80
2023-04-04T09:38:45.667Z,3.30
2023-04-04T09:43:40.944Z,3.00
2023-04-04T09:48:37.185Z,4.00
2023-04-04T09:53:30.194Z,2.80
2023-04-04T09:58:32.139Z,3.70
2023-04-04T10:03:30.267Z,4.80
2023-04-04T10:08:24.119Z,2.20
2023-04-04T10:13:25.932Z,2.30
2023-04-04T10:18:20.696Z,1.40
2023-04-04T10:23:16.428Z,2.00
2023-04-04T10:28:09.926Z,2.70
2023-04-04T10:33:12.950Z,5.10
2023-04-04T10:38:07.216Z,2.70
2023-04-04T10:43:04.948Z,3.10
2023-04-04T10:47:58.630Z,2.70
2023-04-04T10:52:52.135Z,3.60
2023-04-04T10:57:50.916Z,2.00
2023-04-04T11:02:58.347Z,1.80
2023-04-04T11:13:12.739Z,2.20
2023-04-04T11:23:23.036Z,2.90
2023-04-04T11:28:26.479Z,2.00
2023-04-04T11:33:30.236Z,1.00
2023-04-04T11:38:23.605Z,2.10
2023-04-04T11:43:17.206Z,1.40
2023-04-04T11:48:10.617Z,1.40
2023-04-04T11:53:08.117Z,4.40
2023-04-04T11:58:13.273Z,3.20
2023-04-04T12:03:08.863Z,2.70
2023-04-04T12:08:03.968Z,3.60
2023-04-04T12:12:58.041Z,1.80
2023-04-04T12:17:52.139Z,5.30
2023-04-04T12:22:47.674Z,5.70
2023-04-04T12:27:40.766Z,2.20
2023-04-04T12:32:33.827Z,2.50
2023-04-04T12:37:30.241Z,6.10
2023-04-04T12:42:24.674Z,2.90
2023-04-04T12:47:20.999Z,3.40
2023-04-04T12:52:22.557Z,2.10
2023-04-04T12:57:20.477Z,5.10
2023-04-04T13:02:15.500Z,2.50
2023-04-04T13:07:26.660Z,4.20
2023-04-04T13:12:19.910Z,1.80
2023-04-04T13:17:13.289Z,1.80
2023-04-04T13:22:10.269Z,2.40
2023-04-04T13:27:03.105Z,2.70
2023-04-04T13:31:56.615Z,6.60
2023-04-04T13:36:49.561Z,2.70
2023-04-04T13:41:42.346Z,2.90
2023-04-04T13:46:35.752Z,3.30
2023-04-04T13:51:28.782Z,6.80
2023-04-04T13:56:22.256Z,6.20
2023-04-04T14:01:15.463Z,5.90
2023-04-04T14:06:10.941Z,4.60
2023-04-04T14:11:04.137Z,8.50
2023-04-04T14:15:57.004Z,9.80
2023-04-04T14:20:49.914Z,5.10
2023-04-04T14:25:42.996Z,4.80
2023-04-04T14:30:36.060Z,3.00
2023-04-04T14:35:28.863Z,3.90
2023-04-04T14:40:22.118Z,3.00
2023-04-04T14:45:16.254Z,2.80
2023-04-04T14:50:09.651Z,3.10
2023-04-04T14:55:02.468Z,2.90
2023-04-04T14:59:55.358Z,1.90
2023-04-04T15:04:48.176Z,3.20
2023-04-04T15:09:41.016Z,3.70
2023-04-04T15:14:33.865Z,3.50
2023-04-04T15:19:26.633Z,3.90
2023-04-04T15:24:19.420Z,5.10
2023-04-04T15:29:12.457Z,2.60
2023-04-04T15:34:05.289Z,3.50
2023-04-04T15:38:58.062Z,1.80
2023-04-04T15:43:50.887Z,3.30
2023-04-04T15:48:43.747Z,4.00
2023-04-04T15:53:36.516Z,2.80
2023-04-04T15:58:29.942Z,5.40
2023-04-04T16:03:24.111Z,8.80
2023-04-04T16:08:17.157Z,3.30
2023-04-04T16:13:09.918Z,3.10
2023-04-04T16:18:04.181Z,1.70
2023-04-04T16:22:57.069Z,2.70
2023-04-04T16:27:49.869Z,4.00
2023-04-04T16:32:42.805Z,3.50
2023-04-04T16:37:35.954Z,4.20
2023-04-04T16:42:29.005Z,9.60
2023-04-04T16:47:22.241Z,3.30
2023-04-04T16:52:15.367Z,7.50
2023-04-04T16:57:08.626Z,8.80
2023-04-04T17:02:01.462Z,3.60
2023-04-04T17:06:54.333Z,9.80
2023-04-04T17:11:47.197Z,21.10
2023-04-04T17:16:40.027Z,17.80
2023-04-04T17:21:37.230Z,19.30
2023-04-04T17:26:30.953Z,31.00
2023-04-04T17:31:23.834Z,31.30
2023-04-04T17:36:16.668Z,12.60
2023-04-04T17:41:09.977Z,10.40
2023-04-04T17:46:02.891Z,4.50
2023-04-04T17:50:55.753Z,6.40
2023-04-04T17:55:48.587Z,3.00
2023-04-04T18:00:41.485Z,3.40
2023-04-04T18:05:34.745Z,4.10
2023-04-04T18:10:27.871Z,5.50
2023-04-04T18:15:20.840Z,4.00
2023-04-04T18:20:27.609Z,7.40
2023-04-04T18:25:25.746Z,6.10
2023-04-04T18:30:18.841Z,6.50
2023-04-04T18:35:12.996Z,8.50
2023-04-04T18:40:06.336Z,7.90
2023-04-04T18:44:59.404Z,10.30
2023-04-04T18:49:52.346Z,9.00
2023-04-04T18:54:45.733Z,7.80
2023-04-04T18:59:38.619Z,23.20
2023-04-04T19:04:33.689Z,27.70
2023-04-04T19:09:28.346Z,15.00
2023-04-04T19:14:21.364Z,13.00
2023-04-04T19:19:14.284Z,7.30
2023-04-04T19:24:07.885Z,10.20
2023-04-04T19:29:00.766Z,7.60
2023-04-04T19:33:55.422Z,11.50
2023-04-04T19:38:49.502Z,7.80
2023-04-04T19:43:45.522Z,8.60
2023-04-04T19:48:42.118Z,7.80
2023-04-04T19:53:34.921Z,7.70
2023-04-04T19:58:27.997Z,6.60
2023-04-04T20:03:33.636Z,7.70
2023-04-04T20:08:33.253Z,10.40
2023-04-04T20:13:26.081Z,11.10
2023-04-04T20:18:24.374Z,8.20
2023-04-04T20:23:18.270Z,8.60
2023-04-04T20:28:25.573Z,17.90
2023-04-04T20:33:39.186Z,26.80
2023-04-04T20:38:32.980Z,20.60
2023-04-04T20:43:26.061Z,10.00
2023-04-04T20:48:35.752Z,9.30
2023-04-04T20:53:29.175Z,9.40
2023-04-04T20:58:30.232Z,9.50
2023-04-04T21:03:36.011Z,8.20
2023-04-04T21:08:42.302Z,8.40
2023-04-04T21:13:38.408Z,10.40
2023-04-04T21:18:32.915Z,10.90
2023-04-04T21:23:30.122Z,9.20
2023-04-04T21:28:44.181Z,11.90
2023-04-04T21:33:38.117Z,8.80
2023-04-04T21:38:33.212Z,8.30
2023-04-04T21:43:26.168Z,9.00
2023-04-04T21:48:19.022Z,5.80
2023-04-04T21:53:11.838Z,7.90
2023-04-04T21:58:04.637Z,5.00
2023-04-04T22:03:01.577Z,6.00
2023-04-04T22:07:55.117Z,6.50
2023-04-04T22:12:49.943Z,7.40
2023-04-04T22:17:42.810Z,5.10
2023-04-04T22:22:38.956Z,7.50
2023-04-04T22:27:33.861Z,4.70
2023-04-04T22:32:27.104Z,4.60
2023-04-04T22:37:21.647Z,4.90
2023-04-04T22:42:14.524Z,8.90
2023-04-04T22:47:08.038Z,5.50
2023-04-04T22:52:01.016Z,5.10
2023-04-04T22:56:53.774Z,6.60
2023-04-04T23:01:46.612Z,6.10
2023-04-04T23:06:39.544Z,4.40
2023-04-04T23:11:32.448Z,6.60
2023-04-04T23:16:26.499Z,6.50
2023-04-04T23:21:19.468Z,14.20
2023-04-04T23:26:13.622Z,9.90
2023-04-04T23:31:06.486Z,9.30
2023-04-04T23:35:59.339Z,11.60
2023-04-04T23:40:53.732Z,8.60
2023-04-04T23:45:46.581Z,10.70
2023-04-04T23:50:41.543Z,12.10
2023-04-04T23:55:34.576Z,11.10
